createdAt,value
2019-04-07T00:00:01.325Z,13.30
2019-04-07T00:02:40.735Z,14.75
2019-04-07T00:05:18.345Z,16.90
2019-04-07T00:07:55.703Z,14.13
2019-04-07T00:10:33.418Z,16.45
2019-04-07T00:13:11.464Z,15.25
2019-04-07T00:15:48.922Z,16.30
2019-04-07T00:18:28.814Z,14.45
2019-04-07T00:21:07.685Z,20.62
2019-04-07T00:23:46.410Z,13.53
2019-04-07T00:26:25.334Z,13.48
2019-04-07T00:29:03.228Z,15.28
2019-04-07T00:31:41.643Z,16.62
2019-04-07T00:34:19.454Z,15.98
2019-04-07T00:36:57.261Z,11.30
2019-04-07T00:39:35.527Z,15.48
2019-04-07T00:42:14.742Z,18.52
2019-04-07T00:44:53.481Z,13.32
2019-04-07T00:47:31.195Z,13.43
2019-04-07T00:50:08.999Z,11.10
2019-04-07T00:52:46.623Z,14.55
2019-04-07T00:55:24.429Z,17.23
2019-04-07T00:58:03.670Z,11.33
2019-04-07T01:00:41.542Z,14.07
2019-04-07T01:03:19.501Z,13.95
2019-04-07T01:05:57.590Z,9.55
2019-04-07T01:08:35.191Z,10.20
2019-04-07T01:11:12.286Z,12.43
2019-04-07T01:13:50.731Z,11.88
2019-04-07T01:16:30.080Z,11.48
2019-04-07T01:19:08.837Z,12.58
2019-04-07T01:21:46.897Z,13.60
2019-04-07T01:24:25.350Z,11.75
2019-04-07T01:27:03.939Z,10.48
2019-04-07T01:29:43.088Z,13.25
2019-04-07T01:32:20.443Z,17.37
2019-04-07T01:34:59.621Z,18.00
2019-04-07T01:37:38.285Z,16.45
2019-04-07T01:40:16.703Z,18.57
2019-04-07T01:43:12.843Z,18.80
2019-04-07T01:46:14.233Z,16.93
2019-04-07T01:49:11.014Z,20.40
2019-04-07T01:52:13.533Z,11.28
2019-04-07T01:54:56.901Z,12.88
2019-04-07T01:57:52.190Z,16.20
2019-04-07T02:00:50.535Z,12.18
2019-04-07T02:03:46.297Z,12.65
2019-04-07T02:06:34.919Z,12.82
2019-04-07T02:09:33.714Z,12.15
2019-04-07T02:12:30.200Z,14.25
2019-04-07T02:15:25.187Z,14.03
2019-04-07T02:18:08.039Z,14.38
2019-04-07T02:21:04.472Z,14.00
2019-04-07T02:24:10.353Z,11.93
2019-04-07T02:27:07.625Z,12.33
2019-04-07T02:30:01.185Z,10.40
2019-04-07T02:33:14.885Z,19.77
2019-04-07T02:36:17.816Z,14.55
2019-04-07T02:39:09.138Z,13.55
2019-04-07T02:42:10.982Z,10.68
2019-04-07T02:45:03.228Z,12.80
2019-04-07T02:48:03.111Z,12.37
2019-04-07T02:50:57.244Z,14.13
2019-04-07T02:53:51.886Z,13.38
2019-04-07T02:56:42.337Z,16.23
2019-04-07T02:59:48.422Z,11.53
2019-04-07T03:02:43.870Z,11.22
2019-04-07T03:05:45.595Z,11.75
2019-04-07T03:08:54.077Z,13.35
2019-04-07T03:12:00.355Z,10.78
2019-04-07T03:14:55.871Z,13.98
2019-04-07T03:17:52.106Z,10.43
2019-04-07T03:20:37.834Z,11.05
2019-04-07T03:23:32.094Z,13.72
2019-04-07T03:26:26.134Z,14.43
2019-04-07T03:29:31.498Z,17.10
2019-04-07T03:32:24.088Z,9.80
2019-04-07T03:35:20.176Z,10.13
2019-04-07T03:38:19.241Z,19.60
2019-04-07T03:41:09.874Z,19.57
2019-04-07T03:43:59.841Z,9.35
2019-04-07T03:46:43.992Z,11.73
2019-04-07T03:49:57.034Z,10.30
2019-04-07T03:52:49.632Z,13.10
2019-04-07T04:06:39.037Z,16.10
2019-04-07T04:27:35.050Z,9.78
2019-04-07T04:30:13.895Z,12.33
2019-04-07T04:32:52.229Z,12.68
2019-04-07T04:35:30.961Z,11.55
2019-04-07T04:38:13.111Z,11.95
2019-04-07T04:40:52.825Z,14.20
2019-04-07T04:43:31.835Z,11.80
2019-04-07T04:46:13.341Z,11.50
2019-04-07T04:49:52.661Z,12.05
2019-04-07T04:53:09.327Z,10.28
2019-04-07T04:55:51.640Z,13.43
2019-04-07T04:58:38.065Z,14.95
2019-04-07T09:14:27.236Z,12.73
2019-04-07T09:17:45.771Z,12.35
2019-04-07T09:20:40.284Z,12.20
2019-04-07T09:23:38.803Z,10.82
2019-04-07T09:26:28.508Z,15.08
2019-04-07T09:29:26.129Z,11.33
2019-04-07T09:32:33.668Z,16.57
2019-04-07T09:36:04.792Z,21.30
2019-04-07T09:46:20.243Z,10.03
2019-04-07T09:49:23.563Z,13.88
2019-04-07T09:55:13.016Z,13.48
2019-04-07T09:58:14.920Z,18.48
2019-04-07T10:01:11.057Z,12.45
2019-04-07T10:04:07.800Z,13.43
2019-04-07T10:07:00.374Z,14.28
2019-04-07T10:10:07.653Z,9.85
2019-04-07T10:12:53.002Z,14.93
2019-04-07T10:15:51.492Z,11.70
2019-04-07T10:22:48.363Z,11.12
2019-04-07T10:26:00.456Z,11.28
2019-04-07T10:29:04.587Z,9.78
2019-04-07T10:32:16.952Z,12.95
2019-04-07T10:35:23.582Z,13.15
2019-04-07T10:38:28.081Z,12.63
2019-04-07T11:14:26.848Z,11.53
2019-04-07T11:17:27.347Z,10.28
2019-04-07T11:20:29.940Z,14.25
2019-04-07T11:23:17.859Z,15.10
2019-04-07T11:26:18.050Z,11.08
2019-04-07T11:29:14.445Z,10.90
2019-04-07T11:31:59.245Z,18.73
2019-04-07T11:34:38.993Z,13.22
2019-04-07T11:37:38.381Z,8.95
2019-04-07T11:40:41.539Z,10.35
2019-04-07T11:43:27.918Z,11.88
2019-04-07T11:46:23.205Z,11.38
2019-04-07T11:49:31.266Z,11.80
2019-04-07T11:52:14.795Z,16.67
2019-04-07T11:55:08.593Z,12.53
2019-04-07T11:58:19.963Z,13.85
2019-04-07T12:01:14.789Z,9.43
2019-04-07T12:04:29.513Z,12.85
2019-04-07T12:07:32.219Z,12.55
2019-04-07T12:10:25.749Z,12.18
2019-04-07T12:13:22.495Z,11.40
2019-04-07T12:16:29.517Z,13.15
2019-04-07T12:19:26.226Z,12.05
2019-04-07T12:22:14.337Z,11.12
2019-04-07T12:25:12.507Z,9.55
2019-04-07T12:28:06.887Z,12.50
2019-04-07T12:30:54.600Z,11.15
2019-04-07T12:33:40.405Z,14.40
2019-04-07T12:36:40.890Z,12.00
2019-04-07T12:39:53.328Z,10.35
2019-04-07T12:42:41.740Z,10.93
2019-04-07T12:45:25.506Z,12.23
2019-04-07T12:48:30.687Z,14.05
2019-04-07T12:51:29.357Z,11.80
2019-04-07T12:54:25.676Z,12.68
2019-04-07T12:57:20.628Z,11.22
2019-04-07T13:00:22.725Z,12.85
2019-04-07T13:03:15.257Z,15.40
2019-04-07T13:05:59.101Z,17.77
2019-04-07T13:09:04.010Z,13.60
2019-04-07T13:12:09.437Z,14.80
2019-04-07T13:15:24.864Z,13.65
2019-04-07T13:18:15.433Z,19.42
2019-04-07T13:21:13.374Z,15.68
2019-04-07T13:24:30.201Z,16.17
2019-04-07T13:27:17.247Z,20.05
2019-04-07T13:30:04.051Z,22.13
2019-04-07T13:33:01.934Z,16.77
2019-04-07T13:35:50.853Z,16.75
2019-04-07T13:38:38.802Z,15.03
2019-04-07T13:41:42.571Z,15.83
2019-04-07T13:44:32.007Z,16.07
2019-04-07T13:47:23.645Z,16.35
2019-04-07T13:50:31.961Z,21.75
2019-04-07T13:53:31.545Z,15.30
2019-04-07T13:56:34.321Z,12.43
2019-04-07T13:59:31.044Z,12.78
2019-04-07T14:02:42.225Z,18.20
2019-04-07T14:05:46.931Z,18.23
2019-04-07T14:08:52.028Z,13.38
2019-04-07T14:12:10.560Z,14.18
2019-04-07T14:15:19.359Z,15.18
2019-04-07T14:18:14.377Z,12.25
2019-04-07T14:21:16.802Z,13.70
2019-04-07T14:24:14.280Z,10.80
2019-04-07T14:27:10.017Z,13.10
2019-04-07T14:30:06.278Z,11.73
2019-04-07T14:33:18.701Z,12.65
2019-04-07T14:36:15.105Z,15.78
2019-04-07T14:39:15.277Z,13.68
2019-04-07T14:42:06.700Z,11.93
2019-04-07T14:45:05.607Z,12.43
2019-04-07T14:48:03.225Z,15.58
2019-04-07T14:50:53.875Z,15.30
2019-04-07T14:53:49.469Z,13.68
2019-04-07T14:56:48.812Z,15.85
2019-04-07T14:59:54.546Z,14.13
2019-04-07T15:02:32.218Z,12.78
2019-04-07T15:05:23.215Z,13.45
2019-04-07T15:08:15.250Z,15.60
2019-04-07T15:10:56.234Z,11.85
2019-04-07T15:13:36.431Z,13.60
2019-04-07T15:16:13.484Z,14.33
2019-04-07T15:18:51.179Z,12.58
2019-04-07T15:21:28.795Z,15.60
2019-04-07T15:24:08.486Z,19.25
2019-04-07T15:26:48.923Z,13.32
2019-04-07T15:29:25.379Z,16.77
2019-04-07T15:32:03.422Z,14.87
2019-04-07T15:34:42.540Z,10.98
2019-04-07T15:37:22.649Z,12.25
2019-04-07T15:40:00.962Z,13.90
2019-04-07T15:42:42.905Z,12.55
2019-04-07T15:45:20.073Z,12.28
2019-04-07T15:48:00.277Z,16.17
2019-04-07T15:50:36.381Z,15.78
2019-04-07T15:53:16.568Z,13.90
2019-04-07T15:56:01.981Z,20.95
2019-04-07T15:58:33.729Z,19.87
2019-04-07T16:01:11.802Z,18.17
2019-04-07T16:03:53.737Z,16.45
2019-04-07T16:06:30.092Z,16.73
2019-04-07T16:09:13.961Z,13.10
2019-04-07T16:11:49.569Z,17.12
2019-04-07T16:14:29.822Z,19.30
2019-04-07T16:17:09.551Z,15.45
2019-04-07T16:19:50.851Z,16.23
2019-04-07T16:22:25.735Z,13.85
2019-04-07T16:25:05.667Z,21.17
2019-04-07T16:27:43.476Z,24.63
2019-04-07T16:30:21.591Z,20.70
2019-04-07T16:33:02.543Z,25.85
2019-04-07T16:35:39.918Z,24.07
2019-04-07T16:38:17.461Z,26.50
2019-04-07T16:40:55.915Z,25.50
2019-04-07T16:43:34.930Z,24.50
2019-04-07T16:46:16.983Z,25.48
2019-04-07T16:48:51.924Z,26.42
2019-04-07T16:51:31.652Z,23.55
2019-04-07T16:54:08.741Z,24.00
2019-04-07T16:56:50.838Z,23.52
2019-04-07T16:59:27.530Z,25.55
2019-04-07T17:02:05.809Z,22.13
2019-04-07T17:04:43.521Z,24.70
2019-04-07T17:07:24.490Z,25.32
2019-04-07T17:10:02.761Z,23.20
2019-04-07T17:12:42.733Z,20.55
2019-04-07T17:15:21.167Z,21.20
2019-04-07T17:17:58.958Z,19.17
2019-04-07T17:20:37.740Z,17.55
2019-04-07T17:23:18.566Z,19.60
2019-04-07T17:25:54.796Z,18.87
2019-04-07T17:28:34.453Z,19.30
2019-04-07T17:31:11.974Z,19.05
2019-04-07T17:33:49.621Z,20.25
2019-04-07T17:36:27.191Z,16.52
2019-04-07T17:39:24.846Z,15.80
2019-04-07T17:42:02.270Z,16.37
2019-04-07T17:45:20.383Z,18.12
2019-04-07T17:48:13.995Z,13.90
2019-04-07T17:51:10.128Z,13.00
2019-04-07T17:54:06.072Z,13.00
2019-04-07T17:57:06.709Z,10.98
2019-04-07T18:00:07.814Z,9.58
2019-04-07T18:03:02.298Z,9.70
2019-04-07T18:06:07.123Z,10.90
2019-04-07T18:09:12.205Z,10.20
2019-04-07T18:12:14.075Z,10.08
2019-04-07T18:15:10.649Z,11.48
2019-04-07T18:18:10.142Z,11.20
2019-04-07T18:21:04.377Z,9.83
2019-04-07T18:24:03.512Z,10.58
2019-04-07T18:26:58.406Z,11.10
2019-04-07T18:29:47.900Z,16.00
2019-04-07T18:32:53.552Z,12.43
2019-04-07T18:36:03.308Z,13.30
2019-04-07T18:38:56.329Z,14.05
2019-04-07T18:42:06.975Z,13.35
2019-04-07T18:44:49.815Z,16.37
2019-04-07T18:47:45.149Z,16.93
2019-04-07T18:50:41.284Z,16.12
2019-04-07T18:53:45.387Z,16.40
2019-04-07T18:56:33.003Z,20.23
2019-04-07T18:59:21.450Z,19.80
2019-04-07T19:02:19.335Z,25.62
2019-04-07T19:05:07.056Z,23.10
2019-04-07T19:08:05.948Z,23.10
2019-04-07T19:11:10.372Z,21.05
2019-04-07T19:13:47.980Z,23.57
2019-04-07T19:16:47.114Z,20.50
2019-04-07T19:19:46.847Z,22.35
2019-04-07T19:22:41.518Z,22.62
2019-04-07T19:25:53.076Z,22.07
2019-04-07T19:28:38.315Z,25.52
2019-04-07T19:31:34.767Z,24.75
2019-04-07T19:34:33.354Z,25.77
2019-04-07T19:37:33.258Z,23.42
2019-04-07T19:40:25.542Z,21.70
2019-04-07T19:43:23.130Z,24.27
2019-04-07T19:46:27.154Z,22.05
2019-04-07T19:49:22.857Z,21.20
2019-04-07T19:52:16.239Z,22.98
2019-04-07T19:55:03.964Z,26.33
2019-04-07T19:57:57.942Z,24.82
2019-04-07T20:00:55.812Z,24.72
2019-04-07T20:03:47.313Z,22.80
2019-04-07T20:06:44.056Z,24.45
2019-04-07T20:09:44.115Z,22.45
2019-04-07T20:12:34.632Z,20.75
2019-04-07T20:15:45.957Z,16.87
2019-04-07T20:18:45.981Z,22.02
2019-04-07T20:21:58.197Z,22.15
2019-04-07T20:24:53.235Z,19.12
2019-04-07T20:28:02.319Z,20.92
2019-04-07T20:30:53.712Z,21.95
2019-04-07T20:34:06.358Z,21.45
2019-04-07T20:37:02.826Z,22.93
2019-04-07T20:40:03.558Z,16.02
2019-04-07T20:42:58.398Z,19.98
2019-04-07T20:45:50.056Z,21.85
2019-04-07T20:48:46.118Z,17.42
2019-04-07T20:51:53.364Z,27.52
2019-04-07T20:54:56.336Z,17.00
2019-04-07T20:57:56.456Z,21.20
2019-04-07T21:01:10.083Z,23.62
2019-04-07T21:04:01.909Z,18.80
2019-04-07T21:07:13.578Z,20.05
2019-04-07T21:10:09.856Z,21.20
2019-04-07T21:13:03.394Z,26.05
2019-04-07T21:15:56.028Z,25.43
2019-04-07T21:19:05.522Z,20.80
2019-04-07T21:22:12.465Z,21.02
2019-04-07T21:25:13.926Z,20.00
2019-04-07T21:28:10.535Z,22.25
2019-04-07T21:31:07.382Z,18.75
2019-04-07T21:33:59.667Z,19.23
2019-04-07T21:36:53.757Z,18.92
2019-04-07T21:39:47.076Z,23.45
2019-04-07T21:42:45.880Z,26.45
2019-04-07T21:45:45.877Z,22.98
2019-04-07T21:48:37.086Z,26.07
2019-04-07T21:51:29.298Z,19.20
2019-04-07T21:54:34.627Z,28.73
2019-04-07T21:57:24.067Z,29.50
2019-04-07T22:00:27.052Z,27.27
2019-04-07T22:03:22.234Z,25.82
2019-04-07T22:06:37.159Z,29.18
2019-04-07T22:09:23.125Z,28.07
2019-04-07T22:12:02.173Z,25.90
2019-04-07T22:14:42.108Z,29.18
2019-04-07T22:17:19.589Z,36.17
2019-04-07T22:19:58.533Z,33.83
2019-04-07T22:22:35.831Z,35.23
2019-04-07T22:25:14.102Z,33.65
2019-04-07T22:27:54.493Z,44.42
2019-04-07T22:30:33.950Z,38.65
2019-04-07T22:33:12.410Z,37.42
2019-04-07T22:35:49.713Z,32.65
2019-04-07T22:38:27.433Z,33.08
2019-04-07T22:41:06.713Z,40.90
2019-04-07T22:43:47.805Z,36.83
2019-04-07T22:46:27.117Z,33.83
2019-04-07T22:49:02.979Z,32.75
2019-04-07T22:51:44.732Z,35.73
2019-04-07T22:54:20.649Z,33.40
2019-04-07T22:56:58.179Z,27.55
2019-04-07T22:59:36.418Z,35.15
2019-04-07T23:02:13.991Z,27.82
2019-04-07T23:04:52.468Z,31.52
2019-04-07T23:07:29.746Z,31.68
2019-04-07T23:10:07.939Z,31.62
2019-04-07T23:12:45.297Z,31.55
2019-04-07T23:15:35.914Z,36.85
2019-04-07T23:18:03.217Z,29.10
2019-04-07T23:20:41.720Z,24.77
2019-04-07T23:23:19.027Z,26.97
2019-04-07T23:25:57.774Z,29.65
2019-04-07T23:28:34.792Z,32.88
2019-04-07T23:31:13.839Z,32.70
2019-04-07T23:57:02.393Z,47.08
2019-04-07T23:59:40.614Z,39.03
